SIA242 YSSY-WSSS
Flight info
| Callsign | SIA242 |
|---|---|
| Flight time | N/A |
| Altitude | 34000 |
| Route | KADOM A576 PKS G222 VAGPO/N0491F360 G222 ONALA/N0492F380 G222 SAPDA A585 PLB G579 SJ |
| Aircraft | A359/H-SDE2E3GHIJ3J4J5LM1ORWXY/LB1D1 |
Departure
| Time | 2026-04-20 12:46 |
|---|---|
| Airport | Sydney Kingsford Smith International Airport (YSSY) |
Arrival
| Time | N/A |
|---|---|
| Airport | Singapore Changi Airport (WSSS) |
| Time | Latitude | Longitude | Altitude | Speed | Heading |
|---|---|---|---|---|---|
| 2026-04-20 12:08 | -33.93888 | 151.16651 | 36 ft | 0 kts | 254° |
| 2026-04-20 12:31 | -33.93884 | 151.16669 | 35 ft | 4 kts | 254° |
| 2026-04-20 12:31 | -33.93876 | 151.16700 | 36 ft | 4 kts | 252° |
| 2026-04-20 12:32 | -33.93867 | 151.16730 | 32 ft | 4 kts | 237° |
| 2026-04-20 12:32 | -33.93851 | 151.16748 | 34 ft | 4 kts | 173° |
| 2026-04-20 12:32 | -33.93851 | 151.16749 | 34 ft | 3 kts | 164° |
| 2026-04-20 12:32 | -33.93877 | 151.16757 | 34 ft | 4 kts | 165° |
| 2026-04-20 12:33 | -33.93902 | 151.16766 | 36 ft | 4 kts | 164° |
| 2026-04-20 12:33 | -33.93928 | 151.16775 | 36 ft | 4 kts | 163° |
| 2026-04-20 12:33 | -33.93948 | 151.16782 | 36 ft | 0 kts | 164° |
| 2026-04-20 12:33 | -33.93949 | 151.16782 | 36 ft | 0 kts | 164° |
| 2026-04-20 12:38 | -33.93952 | 151.16783 | 36 ft | 3 kts | 164° |
| 2026-04-20 12:39 | -33.94053 | 151.16834 | 36 ft | 8 kts | 116° |
| 2026-04-20 12:39 | -33.94048 | 151.16896 | 36 ft | 8 kts | 77° |
| 2026-04-20 12:39 | -33.94028 | 151.16981 | 36 ft | 15 kts | 74° |
| 2026-04-20 12:40 | -33.94000 | 151.17102 | 36 ft | 15 kts | 74° |
| 2026-04-20 12:40 | -33.93963 | 151.17203 | 35 ft | 11 kts | 32° |
| 2026-04-20 12:40 | -33.93889 | 151.17204 | 35 ft | 10 kts | 349° |
| 2026-04-20 12:40 | -33.93821 | 151.17186 | 35 ft | 11 kts | 347° |
| 2026-04-20 12:41 | -33.93755 | 151.17168 | 35 ft | 9 kts | 347° |
| 2026-04-20 12:41 | -33.93689 | 151.17152 | 35 ft | 11 kts | 348° |
| 2026-04-20 12:41 | -33.93603 | 151.17129 | 35 ft | 14 kts | 348° |
| 2026-04-20 12:41 | -33.93500 | 151.17103 | 35 ft | 15 kts | 348° |
| 2026-04-20 12:42 | -33.93398 | 151.17077 | 36 ft | 14 kts | 346° |
| 2026-04-20 12:42 | -33.93302 | 151.17017 | 35 ft | 18 kts | 314° |
| 2026-04-20 12:42 | -33.93198 | 151.16949 | 36 ft | 17 kts | 347° |
| 2026-04-20 12:42 | -33.93085 | 151.16918 | 36 ft | 17 kts | 347° |
| 2026-04-20 12:43 | -33.92996 | 151.16935 | 35 ft | 12 kts | 47° |
| 2026-04-20 12:43 | -33.92971 | 151.17020 | 36 ft | 0 kts | 78° |
| 2026-04-20 12:44 | -33.92963 | 151.17065 | 37 ft | 9 kts | 78° |
| 2026-04-20 12:45 | -33.92959 | 151.17143 | 37 ft | 9 kts | 112° |
| 2026-04-20 12:45 | -33.93007 | 151.17177 | 36 ft | 2 kts | 166° |
| 2026-04-20 12:45 | -33.93010 | 151.17177 | 36 ft | 0 kts | 166° |
| 2026-04-20 12:45 | -33.93042 | 151.17187 | 36 ft | 19 kts | 166° |
| 2026-04-20 12:46 | -33.93398 | 151.17278 | 34 ft | 86 kts | 168° |
| 2026-04-20 12:46 | -33.94184 | 151.17483 | 35 ft | 144 kts | 168° |
| 2026-04-20 12:46 | -33.95281 | 151.17778 | 380 ft | 164 kts | 170° |
| 2026-04-20 12:46 | -33.96387 | 151.18077 | 1170 ft | 162 kts | 169° |
| 2026-04-20 12:47 | -33.97577 | 151.18141 | 1540 ft | 181 kts | 186° |
| 2026-04-20 12:47 | -33.98877 | 151.17925 | 1808 ft | 195 kts | 186° |
| 2026-04-20 12:47 | -34.00290 | 151.17743 | 2012 ft | 213 kts | 183° |
| 2026-04-20 12:47 | -34.01823 | 151.17613 | 2298 ft | 228 kts | 182° |
| 2026-04-20 12:48 | -34.03425 | 151.17779 | 2766 ft | 234 kts | 168° |
| 2026-04-20 12:48 | -34.05006 | 151.18265 | 3354 ft | 235 kts | 166° |
| 2026-04-20 12:48 | -34.06597 | 151.18796 | 3920 ft | 238 kts | 165° |
| 2026-04-20 12:48 | -34.08206 | 151.19337 | 4423 ft | 242 kts | 165° |
| 2026-04-20 12:49 | -34.09822 | 151.19878 | 4857 ft | 245 kts | 165° |
| 2026-04-20 12:49 | -34.11464 | 151.20431 | 4986 ft | 245 kts | 164° |
| 2026-04-20 12:49 | -34.13113 | 151.20987 | 4991 ft | 245 kts | 165° |
| 2026-04-20 12:49 | -34.14756 | 151.21533 | 4987 ft | 245 kts | 165° |
| 2026-04-20 12:50 | -34.16398 | 151.22079 | 4983 ft | 244 kts | 165° |
| 2026-04-20 12:50 | -34.18060 | 151.22477 | 5062 ft | 243 kts | 175° |
| 2026-04-20 12:50 | -34.19756 | 151.22293 | 5327 ft | 249 kts | 194° |
| 2026-04-20 12:50 | -34.21322 | 151.21385 | 5933 ft | 253 kts | 212° |
| 2026-04-20 12:51 | -34.22607 | 151.19917 | 6522 ft | 257 kts | 224° |
| 2026-04-20 12:51 | -34.23781 | 151.18275 | 7035 ft | 260 kts | 225° |
| 2026-04-20 12:51 | -34.24854 | 151.16480 | 7508 ft | 268 kts | 236° |
| 2026-04-20 12:51 | -34.25447 | 151.14305 | 7982 ft | 280 kts | 258° |
| 2026-04-20 12:52 | -34.25322 | 151.11920 | 8477 ft | 290 kts | 277° |
| 2026-04-20 12:52 | -34.24827 | 151.09532 | 8983 ft | 295 kts | 281° |
| 2026-04-20 12:52 | -34.24102 | 151.07185 | 9481 ft | 303 kts | 295° |
| 2026-04-20 12:52 | -34.22744 | 151.05207 | 9970 ft | 312 kts | 320° |
| 2026-04-20 12:53 | -34.20797 | 151.04008 | 10336 ft | 319 kts | 346° |
| 2026-04-20 12:53 | -34.18610 | 151.03457 | 10733 ft | 326 kts | 350° |
| 2026-04-20 12:53 | -34.16347 | 151.02969 | 11031 ft | 334 kts | 350° |
| 2026-04-20 12:53 | -34.14070 | 151.02469 | 11470 ft | 338 kts | 349° |
| 2026-04-20 12:54 | -34.11747 | 151.01947 | 11948 ft | 341 kts | 349° |
| 2026-04-20 12:54 | -34.09422 | 151.01342 | 12423 ft | 343 kts | 344° |
| 2026-04-20 12:54 | -34.07124 | 151.00554 | 12936 ft | 345 kts | 343° |
| 2026-04-20 12:54 | -34.04801 | 150.99742 | 13394 ft | 348 kts | 343° |
| 2026-04-20 12:55 | -34.02467 | 150.98941 | 13863 ft | 350 kts | 343° |
| 2026-04-20 12:55 | -34.00196 | 150.97876 | 14290 ft | 352 kts | 329° |
| 2026-04-20 12:55 | -33.98285 | 150.96052 | 14634 ft | 353 kts | 308° |
| 2026-04-20 12:55 | -33.96940 | 150.93575 | 14813 ft | 357 kts | 293° |
| 2026-04-20 12:56 | -33.95844 | 150.90849 | 15014 ft | 366 kts | 292° |
| 2026-04-20 12:56 | -33.94740 | 150.88040 | 15203 ft | 376 kts | 292° |
| 2026-04-20 12:56 | -33.93601 | 150.85174 | 15408 ft | 385 kts | 292° |
| 2026-04-20 12:56 | -33.92823 | 150.83234 | 15534 ft | 391 kts | 292° |
| 2026-04-20 12:57 | -33.91624 | 150.80258 | 15722 ft | 399 kts | 292° |
| 2026-04-20 12:57 | -33.90398 | 150.77227 | 15889 ft | 407 kts | 292° |
| 2026-04-20 12:57 | -33.89141 | 150.74128 | 16065 ft | 415 kts | 292° |
| 2026-04-20 12:57 | -33.87866 | 150.70989 | 16252 ft | 421 kts | 292° |
| 2026-04-20 12:58 | -33.86570 | 150.67805 | 16558 ft | 424 kts | 292° |
| 2026-04-20 12:58 | -33.85265 | 150.64601 | 16877 ft | 427 kts | 292° |
| 2026-04-20 12:58 | -33.83953 | 150.61384 | 17234 ft | 429 kts | 292° |
| 2026-04-20 12:58 | -33.82636 | 150.58158 | 17575 ft | 431 kts | 292° |
| 2026-04-20 12:59 | -33.81308 | 150.54907 | 17909 ft | 433 kts | 292° |
| 2026-04-20 12:59 | -33.79977 | 150.51650 | 18251 ft | 435 kts | 292° |
| 2026-04-20 12:59 | -33.78637 | 150.48376 | 18588 ft | 437 kts | 292° |
| 2026-04-20 12:59 | -33.77291 | 150.45089 | 18847 ft | 439 kts | 292° |
| 2026-04-20 13:00 | -33.75942 | 150.41799 | 19104 ft | 441 kts | 292° |
| 2026-04-20 13:00 | -33.74595 | 150.38519 | 19395 ft | 443 kts | 292° |
| 2026-04-20 13:00 | -33.73225 | 150.35188 | 19667 ft | 445 kts | 292° |
| 2026-04-20 13:00 | -33.71857 | 150.31851 | 19953 ft | 447 kts | 292° |
| 2026-04-20 13:01 | -33.70644 | 150.28410 | 20233 ft | 446 kts | 287° |
| 2026-04-20 13:01 | -33.69597 | 150.24903 | 20503 ft | 446 kts | 284° |
| 2026-04-20 13:01 | -33.68628 | 150.21359 | 20772 ft | 448 kts | 283° |
| 2026-04-20 13:01 | -33.67686 | 150.17786 | 21049 ft | 449 kts | 283° |
| 2026-04-20 13:02 | -33.66745 | 150.14191 | 21289 ft | 452 kts | 283° |
| 2026-04-20 13:02 | -33.65791 | 150.10579 | 21539 ft | 454 kts | 283° |
| 2026-04-20 13:02 | -33.64821 | 150.06959 | 21816 ft | 456 kts | 284° |
| 2026-04-20 13:02 | -33.63850 | 150.03376 | 22099 ft | 458 kts | 284° |
| 2026-04-20 13:03 | -33.62843 | 149.99691 | 22366 ft | 460 kts | 284° |
| 2026-04-20 13:03 | -33.61849 | 149.96081 | 22601 ft | 462 kts | 284° |
| 2026-04-20 13:03 | -33.60841 | 149.92414 | 22843 ft | 464 kts | 284° |
| 2026-04-20 13:03 | -33.59830 | 149.88735 | 23115 ft | 465 kts | 284° |
| 2026-04-20 13:04 | -33.58813 | 149.85041 | 23350 ft | 467 kts | 284° |
| 2026-04-20 13:04 | -33.57791 | 149.81331 | 23599 ft | 469 kts | 284° |
| 2026-04-20 13:04 | -33.56767 | 149.77616 | 23844 ft | 470 kts | 284° |
| 2026-04-20 13:04 | -33.55737 | 149.73886 | 24065 ft | 472 kts | 284° |
| 2026-04-20 13:05 | -33.54702 | 149.70142 | 24266 ft | 474 kts | 284° |
| 2026-04-20 13:05 | -33.53664 | 149.66393 | 24471 ft | 475 kts | 284° |
| 2026-04-20 13:05 | -33.52618 | 149.62620 | 24670 ft | 477 kts | 284° |
| 2026-04-20 13:05 | -33.51568 | 149.58836 | 24865 ft | 478 kts | 284° |
| 2026-04-20 13:06 | -33.50525 | 149.55087 | 25032 ft | 481 kts | 284° |
| 2026-04-20 13:06 | -33.49460 | 149.51258 | 25141 ft | 484 kts | 284° |
| 2026-04-20 13:06 | -33.48390 | 149.47415 | 25228 ft | 488 kts | 284° |
| 2026-04-20 13:06 | -33.47311 | 149.43544 | 25373 ft | 493 kts | 284° |
| 2026-04-20 13:07 | -33.46219 | 149.39636 | 25776 ft | 494 kts | 284° |
| 2026-04-20 13:07 | -33.45123 | 149.35725 | 26106 ft | 496 kts | 284° |
| 2026-04-20 13:07 | -33.44033 | 149.31841 | 26471 ft | 498 kts | 284° |
| 2026-04-20 13:07 | -33.42930 | 149.27918 | 26931 ft | 497 kts | 283° |
| 2026-04-20 13:08 | -33.41828 | 149.24005 | 27385 ft | 496 kts | 283° |
| 2026-04-20 13:08 | -33.40726 | 149.20095 | 27853 ft | 495 kts | 283° |
| 2026-04-20 13:08 | -33.39627 | 149.16200 | 28306 ft | 494 kts | 283° |
| 2026-04-20 13:08 | -33.38526 | 149.12303 | 28762 ft | 493 kts | 283° |
| 2026-04-20 13:09 | -33.37428 | 149.08417 | 29227 ft | 492 kts | 283° |
| 2026-04-20 13:09 | -33.36334 | 149.04551 | 29677 ft | 491 kts | 283° |
| 2026-04-20 13:09 | -33.35237 | 149.00674 | 29924 ft | 494 kts | 283° |
| 2026-04-20 13:09 | -33.34133 | 148.96774 | 30252 ft | 495 kts | 283° |
| 2026-04-20 13:10 | -33.33026 | 148.92878 | 30606 ft | 494 kts | 283° |
| 2026-04-20 13:10 | -33.31918 | 148.88989 | 30929 ft | 494 kts | 283° |
| 2026-04-20 13:10 | -33.30807 | 148.85089 | 31123 ft | 497 kts | 283° |
| 2026-04-20 13:10 | -33.29691 | 148.81172 | 31354 ft | 498 kts | 283° |
| 2026-04-20 13:11 | -33.28573 | 148.77259 | 31666 ft | 497 kts | 283° |
| 2026-04-20 13:11 | -33.27453 | 148.73349 | 31995 ft | 495 kts | 283° |
| 2026-04-20 13:11 | -33.26341 | 148.69473 | 32358 ft | 493 kts | 283° |
| 2026-04-20 13:11 | -33.25227 | 148.65596 | 32647 ft | 492 kts | 283° |
| 2026-04-20 13:12 | -33.24118 | 148.61736 | 32927 ft | 491 kts | 283° |
| 2026-04-20 13:12 | -33.23022 | 148.57921 | 33159 ft | 492 kts | 283° |
| 2026-04-20 13:12 | -33.21894 | 148.53998 | 33265 ft | 495 kts | 283° |
| 2026-04-20 13:13 | -33.19654 | 148.46217 | 33434 ft | 501 kts | 283° |
| 2026-04-20 13:13 | -33.17370 | 148.38318 | 33629 ft | 506 kts | 283° |
| 2026-04-20 13:14 | -33.15059 | 148.30353 | 33802 ft | 510 kts | 283° |
| 2026-04-20 13:14 | -33.13896 | 148.26359 | 33930 ft | 511 kts | 283° |
| 2026-04-20 13:14 | -33.12725 | 148.22356 | 34059 ft | 511 kts | 284° |
| 2026-04-20 13:14 | -33.11426 | 148.18399 | 34210 ft | 513 kts | 288° |
| 2026-04-20 13:15 | -33.09999 | 148.14495 | 34304 ft | 514 kts | 289° |
| 2026-04-20 13:15 | -33.07041 | 148.06729 | 34309 ft | 514 kts | 289° |
| 2026-04-20 13:16 | -33.04125 | 147.98955 | 34309 ft | 513 kts | 288° |
| 2026-04-20 13:16 | -33.01280 | 147.91218 | 34296 ft | 513 kts | 288° |
| 2026-04-20 13:17 | -32.98425 | 147.83414 | 34301 ft | 512 kts | 288° |